createdAt,value
2022-09-28T00:22:27.995Z,-59
2022-09-28T00:52:34.252Z,-60
2022-09-28T01:22:41.183Z,-60
2022-09-28T01:52:41.618Z,-60
2022-09-28T02:22:48.927Z,-60
2022-09-28T02:52:57.243Z,-60
2022-09-28T03:23:05.004Z,-60
2022-09-28T03:23:16.969Z,-60
2022-09-28T03:53:32.698Z,-60
2022-09-28T04:23:50.172Z,-60
2022-09-28T04:54:01.454Z,-59
2022-09-28T05:24:06.097Z,-58
2022-09-28T05:54:06.238Z,-60
2022-09-28T06:24:10.648Z,-59
2022-09-28T06:54:12.226Z,-60
2022-09-28T07:24:12.454Z,-61
2022-09-28T07:54:20.241Z,-61
2022-09-28T08:24:30.303Z,-61
2022-09-28T08:54:40.125Z,-61
2022-09-28T09:24:48.299Z,-61
2022-09-28T09:54:52.625Z,-60
2022-09-28T10:24:55.221Z,-62
2022-09-28T10:55:04.014Z,-63
2022-09-28T11:25:10.816Z,-67
2022-09-28T11:35:11.671Z,-66
2022-09-28T12:05:19.813Z,-67
2022-09-28T12:35:22.671Z,-68
2022-09-28T12:35:32.796Z,-67
2022-09-28T12:35:42.750Z,-66
2022-09-28T12:35:53.700Z,-66
2022-09-28T13:07:11.713Z,-67
2022-09-28T13:37:13.798Z,-63
2022-09-28T14:07:17.116Z,-65
2022-09-28T14:37:23.799Z,-67
2022-09-28T15:07:33.660Z,-67
2022-09-28T15:37:45.207Z,-67
2022-09-28T16:07:50.829Z,-66
2022-09-28T16:37:51.201Z,-66
2022-09-28T17:08:10.242Z,-65
2022-09-28T17:38:19.971Z,-65
2022-09-28T17:38:28.790Z,-65
2022-09-28T17:38:38.806Z,-65
2022-09-28T17:38:50.730Z,-65
2022-09-28T17:39:09.129Z,-66
2022-09-28T18:10:12.875Z,-65
2022-09-28T18:40:23.572Z,-65
2022-09-28T19:10:37.249Z,-65
2022-09-28T19:40:53.148Z,-66
2022-09-28T20:10:59.877Z,-66
2022-09-28T20:41:03.124Z,-66
2022-09-28T21:11:08.761Z,-65
2022-09-28T21:41:13.689Z,-65
2022-09-28T22:11:16.689Z,-65
2022-09-28T22:41:34.133Z,-65
2022-09-28T23:11:41.157Z,-65
2022-09-28T23:41:44.276Z,-65
